Time;durP1;ratioP1;P1;durP2;ratioP2;P2;SDS_P1;SDS_P2;PMS_P1;PMS_P2;Temp;Humidity;BMP_temperature;BMP_pressure;BME280_temperature;BME280_humidity;BME280_pressure;Samples;Min_cycle;Max_cycle;Signal;HPM_P1;HPM_P2
2022/01/08 00:01:40;;;;;;;;;24.00;16.00;;;;;;;;5181216;27;11558;-75
2022/01/08 00:04:05;;;;;;;;;22.33;20.67;;;;;;;;5181662;27;11324;-75
2022/01/08 00:06:30;;;;;;;;;16.00;13.33;;;;;;;;5181278;27;13459;-76
2022/01/08 00:08:56;;;;;;;;;24.00;16.00;;;;;;;;5181135;27;13266;-75
2022/01/08 00:11:25;;;;;;;;;17.67;16.67;;;;;;;;5182161;27;13679;-75
2022/01/08 00:13:50;;;;;;;;;19.67;17.00;;;;;;;;5181411;27;13603;-75
2022/01/08 00:16:16;;;;;;;;;19.00;16.67;;;;;;;;5181223;27;11409;-74
2022/01/08 00:18:41;;;;;;;;;19.00;18.00;;;;;;;;5181338;27;10398;-75
2022/01/08 00:21:06;;;;;;;;;20.33;18.33;;;;;;;;5182039;27;8947;-74
2022/01/08 00:23:31;;;;;;;;;21.67;21.00;;;;;;;;5181604;27;13892;-75
2022/01/08 00:25:58;;;;;;;;;20.33;17.33;;;;;;;;5181671;27;12541;-74
2022/01/08 00:28:24;;;;;;;;;21.33;21.33;;;;;;;;5181368;27;12836;-74
2022/01/08 00:30:50;;;;;;;;;21.33;16.00;;;;;;;;5181130;27;9532;-74
2022/01/08 00:33:15;;;;;;;;;20.33;18.67;;;;;;;;5161732;27;11390;-74
2022/01/08 00:35:41;;;;;;;;;24.67;21.00;;;;;;;;5184890;27;11373;-74
2022/01/08 00:38:06;;;;;;;;;21.00;20.33;;;;;;;;5185237;27;12204;-74
2022/01/08 00:40:31;;;;;;;;;21.67;18.67;;;;;;;;5184954;27;11570;-76
2022/01/08 00:42:57;;;;;;;;;27.33;18.33;;;;;;;;5185158;27;12347;-75
2022/01/08 00:45:22;;;;;;;;;18.67;17.33;;;;;;;;5184900;27;11383;-75
2022/01/08 00:47:47;;;;;;;;;19.67;18.33;;;;;;;;5183617;27;12528;-75
2022/01/08 00:50:13;;;;;;;;;18.33;16.00;;;;;;;;5184796;27;9004;-75
2022/01/08 00:52:41;;;;;;;;;21.00;21.00;;;;;;;;5184544;27;12841;-75
2022/01/08 00:55:07;;;;;;;;;21.00;18.00;;;;;;;;5184808;27;12315;-75
2022/01/08 00:57:33;;;;;;;;;19.67;16.00;;;;;;;;5184856;27;8905;-75
2022/01/08 00:59:58;;;;;;;;;18.00;16.00;;;;;;;;5184297;27;13355;-76
2022/01/08 01:02:23;;;;;;;;;20.00;16.67;;;;;;;;5165373;27;9035;-75
2022/01/08 01:04:48;;;;;;;;;18.67;18.33;;;;;;;;5184237;27;13272;-74
2022/01/08 01:07:14;;;;;;;;;21.00;20.67;;;;;;;;5183824;27;13237;-74
2022/01/08 01:09:39;;;;;;;;;22.33;16.67;;;;;;;;5184044;27;14501;-75
2022/01/08 01:12:04;;;;;;;;;18.33;15.00;;;;;;;;5184105;27;11791;-74
2022/01/08 01:14:30;;;;;;;;;21.00;18.00;;;;;;;;5184065;27;13540;-74
2022/01/08 01:16:56;;;;;;;;;22.00;19.67;;;;;;;;5184274;27;12190;-74
2022/01/08 01:19:21;;;;;;;;;24.33;19.00;;;;;;;;5184564;27;11679;-74
2022/01/08 01:21:47;;;;;;;;;21.67;16.67;;;;;;;;5184353;27;11871;-74
2022/01/08 01:24:17;;;;;;;;;20.33;16.67;;;;;;;;5184240;27;11342;-74
2022/01/08 01:27:01;;;;;;;;;19.67;16.33;;;;;;;;5183691;27;9461;-75
2022/01/08 01:43:18;;;;;;;;;13.00;13.00;;;;;;;;5184376;27;11379;-76
2022/01/08 01:48:22;;;;;;;;;11.33;11.33;;;;;;;;5183100;27;22419;-76
2022/01/08 01:50:48;;;;;;;;;18.00;15.00;;;;;;;;5183257;27;21493;-76
2022/01/08 01:53:13;;;;;;;;;17.67;16.00;;;;;;;;5183257;27;12524;-76
2022/01/08 01:55:39;;;;;;;;;12.00;9.00;;;;;;;;5183323;27;10398;-76
2022/01/08 01:58:06;;;;;;;;;20.33;16.00;;;;;;;;5183883;27;22810;-75
2022/01/08 02:00:31;;;;;;;;;17.33;15.00;;;;;;;;5164228;27;24767;-75
2022/01/08 02:02:57;;;;;;;;;15.33;15.00;;;;;;;;5183579;27;10326;-75
2022/01/08 02:05:22;;;;;;;;;15.00;12.00;;;;;;;;5183768;27;9585;-75
2022/01/08 02:07:47;;;;;;;;;12.00;12.00;;;;;;;;5183147;27;9658;-76
2022/01/08 02:10:13;;;;;;;;;16.67;13.00;;;;;;;;5183619;27;8798;-75
2022/01/08 02:12:38;;;;;;;;;12.67;12.67;;;;;;;;5183019;27;10389;-74
2022/01/08 02:15:04;;;;;;;;;15.00;11.33;;;;;;;;5182715;27;11360;-74
2022/01/08 02:17:29;;;;;;;;;15.00;12.33;;;;;;;;5183585;27;11512;-74
2022/01/08 02:19:55;;;;;;;;;14.00;10.00;;;;;;;;5183752;27;8833;-74
2022/01/08 02:22:21;;;;;;;;;17.33;13.00;;;;;;;;5183211;27;12054;-75
2022/01/08 02:24:46;;;;;;;;;14.67;11.33;;;;;;;;5183479;27;10402;-75
2022/01/08 02:27:12;;;;;;;;;10.00;10.00;;;;;;;;5182743;27;11593;-73
2022/01/08 02:29:37;;;;;;;;;16.00;14.33;;;;;;;;5182482;27;11394;-73
2022/01/08 02:32:04;;;;;;;;;12.33;12.33;;;;;;;;5182474;27;10906;-74
2022/01/08 02:34:30;;;;;;;;;16.00;16.00;;;;;;;;5182993;27;11111;-74
2022/01/08 02:36:57;;;;;;;;;18.00;15.67;;;;;;;;5182869;27;11431;-75
2022/01/08 02:39:22;;;;;;;;;16.00;14.33;;;;;;;;5182290;27;11508;-74
2022/01/08 02:41:53;;;;;;;;;11.00;10.67;;;;;;;;5182538;27;11653;-74
2022/01/08 02:44:18;;;;;;;;;18.00;13.67;;;;;;;;5182081;27;11498;-74
2022/01/08 02:46:43;;;;;;;;;13.00;12.67;;;;;;;;5181978;27;9622;-74
2022/01/08 02:49:08;;;;;;;;;0.00;0.00;;;;;;;;5183009;27;8805;-74
2022/01/08 02:51:35;;;;;;;;;16.00;12.67;;;;;;;;5182656;27;23644;-74
2022/01/08 02:54:01;;;;;;;;;14.33;12.00;;;;;;;;5182105;27;22767;-74
2022/01/08 02:56:26;;;;;;;;;11.33;11.33;;;;;;;;5182082;27;11668;-72
2022/01/08 02:58:51;;;;;;;;;16.67;12.33;;;;;;;;5182319;27;11348;-73
2022/01/08 03:01:17;;;;;;;;;12.33;9.33;;;;;;;;5182500;27;10534;-73
2022/01/08 03:03:42;;;;;;;;;13.67;12.00;;;;;;;;5181887;27;21383;-72
2022/01/08 03:06:07;;;;;;;;;13.33;12.00;;;;;;;;5181615;27;21492;-73
2022/01/08 03:08:32;;;;;;;;;16.00;13.50;;;;;;;;5182714;27;8816;-74
2022/01/08 03:10:58;;;;;;;;;13.00;12.75;;;;;;;;5182001;27;11709;-74
2022/01/08 03:13:23;;;;;;;;;15.50;12.00;;;;;;;;5182057;27;11389;-73
2022/01/08 03:15:48;;;;;;;;;15.75;12.25;;;;;;;;5182623;27;11424;-74
2022/01/08 03:18:14;;;;;;;;;12.00;12.00;;;;;;;;5182398;27;8801;-75
2022/01/08 03:21:00;;;;;;;;;13.00;12.75;;;;;;;;5182226;27;11761;-75
2022/01/08 03:23:34;;;;;;;;;10.50;10.50;;;;;;;;5182220;27;11684;-74
2022/01/08 03:25:59;;;;;;;;;12.75;12.75;;;;;;;;5182381;27;11610;-74
2022/01/08 03:28:25;;;;;;;;;13.25;11.00;;;;;;;;5182108;27;11378;-74
2022/01/08 03:30:50;;;;;;;;;18.50;15.75;;;;;;;;5181930;27;11416;-74
2022/01/08 03:33:15;;;;;;;;;12.50;12.50;;;;;;;;5182091;27;11532;-74
2022/01/08 03:35:40;;;;;;;;;20.00;15.25;;;;;;;;5181907;27;11409;-75
2022/01/08 03:38:06;;;;;;;;;19.00;15.50;;;;;;;;5181725;27;13297;-74
2022/01/08 03:40:33;;;;;;;;;14.75;13.00;;;;;;;;5181523;27;14421;-74
2022/01/08 03:42:58;;;;;;;;;10.25;9.25;;;;;;;;5182292;27;11463;-73
2022/01/08 03:45:24;;;;;;;;;12.00;10.50;;;;;;;;5162573;27;23727;-74
2022/01/08 03:50:14;;;;;;;;;7.00;7.00;;;;;;;;5181406;27;21368;-75
2022/01/08 03:52:40;;;;;;;;;11.25;9.00;;;;;;;;5181781;27;22115;-74
2022/01/08 03:55:05;;;;;;;;;7.00;6.75;;;;;;;;5181530;27;21390;-75
2022/01/08 03:57:31;;;;;;;;;6.00;4.00;;;;;;;;5181501;27;22507;-74
2022/01/08 03:59:56;;;;;;;;;8.75;7.50;;;;;;;;5181734;27;11477;-75
2022/01/08 04:02:21;;;;;;;;;7.00;6.50;;;;;;;;5181635;27;12602;-75
2022/01/08 04:04:48;;;;;;;;;8.50;8.50;;;;;;;;5181792;27;10502;-74
2022/01/08 04:07:13;;;;;;;;;7.00;7.00;;;;;;;;5181703;27;10404;-75
2022/01/08 04:09:39;;;;;;;;;6.00;6.00;;;;;;;;5183767;27;11323;-75
2022/01/08 04:12:06;;;;;;;;;7.00;6.50;;;;;;;;5185804;27;9107;-74
2022/01/08 04:14:41;;;;;;;;;6.75;5.00;;;;;;;;5185183;27;11423;-74
2022/01/08 04:17:07;;;;;;;;;11.50;10.00;;;;;;;;5184289;27;11387;-75
2022/01/08 04:19:32;;;;;;;;;1.00;1.00;;;;;;;;5165845;27;25524;-74
2022/01/08 04:22:09;;;;;;;;;11.50;9.50;;;;;;;;5184877;27;22261;-74
2022/01/08 04:24:34;;;;;;;;;12.50;10.50;;;;;;;;5184603;27;21863;-73
2022/01/08 04:27:00;;;;;;;;;12.25;10.00;;;;;;;;5184139;27;21636;-73
2022/01/08 04:29:25;;;;;;;;;11.50;11.50;;;;;;;;5184844;27;8754;-74
2022/01/08 04:31:50;;;;;;;;;14.00;10.50;;;;;;;;5184642;27;11758;-74
2022/01/08 04:34:15;;;;;;;;;17.00;9.00;;;;;;;;5184649;27;10335;-74
2022/01/08 04:36:42;;;;;;;;;6.75;6.75;;;;;;;;5183816;27;21330;-74
2022/01/08 04:39:07;;;;;;;;;12.00;6.00;;;;;;;;5184780;27;21759;-74
2022/01/08 04:41:33;;;;;;;;;9.25;7.00;;;;;;;;5184677;27;21425;-74
2022/01/08 04:43:58;;;;;;;;;9.50;9.00;;;;;;;;5184682;27;21653;-74
2022/01/08 04:46:23;;;;;;;;;7.50;7.50;;;;;;;;5185068;27;9440;-74
2022/01/08 04:48:48;;;;;;;;;10.00;9.00;;;;;;;;5184264;27;12403;-74
2022/01/08 04:51:14;;;;;;;;;10.00;9.00;;;;;;;;5184299;27;21453;-73
2022/01/08 04:53:39;;;;;;;;;10.00;10.00;;;;;;;;5184867;27;8782;-73
2022/01/08 04:56:04;;;;;;;;;6.25;6.25;;;;;;;;5183954;27;16483;-73
2022/01/08 04:58:30;;;;;;;;;12.00;9.50;;;;;;;;5184361;27;23750;-72
2022/01/08 05:00:55;;;;;;;;;12.00;10.00;;;;;;;;5184086;27;21395;-73
2022/01/08 05:03:21;;;;;;;;;12.00;11.50;;;;;;;;5173550;27;16554;-73
2022/01/08 05:05:46;;;;;;;;;11.50;10.00;;;;;;;;5163312;27;8835;-74
2022/01/08 05:08:11;;;;;;;;;11.50;11.50;;;;;;;;5163139;27;11423;-73
2022/01/08 05:10:37;;;;;;;;;13.75;10.50;;;;;;;;5163843;27;8852;-74
2022/01/08 05:13:04;;;;;;;;;10.25;10.25;;;;;;;;5166362;27;10574;-72
2022/01/08 05:15:30;;;;;;;;;9.25;8.50;;;;;;;;5173184;27;11681;-72
2022/01/08 05:17:55;;;;;;;;;9.50;9.50;;;;;;;;5171394;27;22591;-72
2022/01/08 05:20:21;;;;;;;;;9.25;9.00;;;;;;;;5154696;27;12552;-73
2022/01/08 05:22:52;;;;;;;;;12.00;7.00;;;;;;;;5154106;27;10535;-73
2022/01/08 05:25:19;;;;;;;;;7.00;6.50;;;;;;;;5172248;27;21787;-73
2022/01/08 05:27:46;;;;;;;;;12.75;9.00;;;;;;;;5170725;27;21810;-73
2022/01/08 05:30:12;;;;;;;;;9.75;6.75;;;;;;;;5163345;27;22042;-75
2022/01/08 05:32:38;;;;;;;;;7.00;7.00;;;;;;;;5162725;27;22057;-76
2022/01/08 05:35:03;;;;;;;;;6.25;6.25;;;;;;;;5163451;27;11276;-76
2022/01/08 05:37:29;;;;;;;;;6.25;6.25;;;;;;;;5144260;27;11636;-78
2022/01/08 05:39:55;;;;;;;;;13.75;7.00;;;;;;;;5163739;27;8882;-77
2022/01/08 05:42:20;;;;;;;;;3.25;0.00;;;;;;;;5168599;27;21849;-78
2022/01/08 05:44:45;;;;;;;;;9.00;6.00;;;;;;;;5171810;27;21686;-77
2022/01/08 05:47:11;;;;;;;;;7.00;7.00;;;;;;;;5172632;27;10774;-76
2022/01/08 05:49:36;;;;;;;;;7.00;7.00;;;;;;;;5155236;27;10547;-77
2022/01/08 05:52:01;;;;;;;;;9.00;6.75;;;;;;;;5172824;27;9480;-77
2022/01/08 05:54:27;;;;;;;;;9.25;6.25;;;;;;;;5175402;27;11976;-78
2022/01/08 05:56:52;;;;;;;;;7.00;5.75;;;;;;;;5175131;27;8851;-76
2022/01/08 05:59:18;;;;;;;;;6.75;6.50;;;;;;;;5147067;27;12561;-77
2022/01/08 06:01:43;;;;;;;;;6.75;6.00;;;;;;;;5163425;27;11308;-76
2022/01/08 06:04:09;;;;;;;;;10.75;8.50;;;;;;;;5175620;27;8805;-78
2022/01/08 06:06:35;;;;;;;;;7.00;7.00;;;;;;;;5183458;27;21343;-79
2022/01/08 06:09:01;;;;;;;;;10.00;8.50;;;;;;;;5184689;27;21804;-81
2022/01/08 06:11:26;;;;;;;;;7.00;7.00;;;;;;;;5181531;27;22564;-79
2022/01/08 06:13:52;;;;;;;;;13.50;9.50;;;;;;;;5171902;27;21261;-80
2022/01/08 06:16:17;;;;;;;;;11.50;9.00;;;;;;;;5170310;27;21728;-79
2022/01/08 06:18:42;;;;;;;;;4.00;4.00;;;;;;;;5166360;27;10283;-80
2022/01/08 06:21:07;;;;;;;;;7.50;6.00;;;;;;;;5162878;27;23210;-80
2022/01/08 06:23:33;;;;;;;;;11.75;7.00;;;;;;;;5172808;27;10247;-78
2022/01/08 06:25:58;;;;;;;;;11.75;6.75;;;;;;;;5170309;27;21311;-79
2022/01/08 06:28:23;;;;;;;;;7.00;7.00;;;;;;;;5171346;27;10835;-79
2022/01/08 06:30:49;;;;;;;;;8.50;6.25;;;;;;;;5152920;27;21904;-78
2022/01/08 06:33:14;;;;;;;;;6.25;5.50;;;;;;;;5169128;27;11301;-81
2022/01/08 06:35:39;;;;;;;;;9.00;6.25;;;;;;;;5176133;27;11879;-81
2022/01/08 06:38:05;;;;;;;;;10.00;6.75;;;;;;;;5183081;27;11310;-78
2022/01/08 06:40:30;;;;;;;;;10.00;9.00;;;;;;;;5182583;27;22002;-79
2022/01/08 06:42:55;;;;;;;;;12.75;9.00;;;;;;;;5182871;27;8796;-79
2022/01/08 06:45:21;;;;;;;;;6.75;6.75;;;;;;;;5183241;27;8758;-79
2022/01/08 06:47:46;;;;;;;;;10.00;8.50;;;;;;;;5181815;27;21640;-79
2022/01/08 06:50:12;;;;;;;;;6.00;6.00;;;;;;;;5182642;27;21832;-79
2022/01/08 06:52:37;;;;;;;;;3.50;3.50;;;;;;;;5182483;27;22532;-80
2022/01/08 06:55:03;;;;;;;;;12.00;10.00;;;;;;;;5183018;27;11837;-74
2022/01/08 06:57:28;;;;;;;;;9.25;9.25;;;;;;;;5183005;27;22519;-73
2022/01/08 06:59:53;;;;;;;;;12.50;8.00;;;;;;;;5182955;27;23249;-73
2022/01/08 07:02:18;;;;;;;;;9.50;8.00;;;;;;;;5182743;27;21371;-74
2022/01/08 07:04:44;;;;;;;;;8.00;6.75;;;;;;;;5179160;27;16343;-77
2022/01/08 07:07:09;;;;;;;;;10.00;7.50;;;;;;;;5180070;27;11376;-75
2022/01/08 07:09:34;;;;;;;;;12.00;8.00;;;;;;;;5182553;27;21416;-79
2022/01/08 07:11:59;;;;;;;;;9.75;7.00;;;;;;;;5183206;27;10532;-77
2022/01/08 07:14:25;;;;;;;;;9.00;6.00;;;;;;;;5163357;27;22173;-72
2022/01/08 07:16:50;;;;;;;;;7.50;7.00;;;;;;;;5182011;27;9464;-73
2022/01/08 07:19:15;;;;;;;;;2.33;1.00;;;;;;;;5182795;27;11356;-77
2022/01/08 07:21:41;;;;;;;;;10.00;9.00;;;;;;;;5170849;27;12002;-72
2022/01/08 07:24:06;;;;;;;;;13.00;10.00;;;;;;;;5171346;27;21509;-74
2022/01/08 07:26:31;;;;;;;;;9.33;9.00;;;;;;;;5172422;27;21356;-73
2022/01/08 07:28:56;;;;;;;;;9.33;8.00;;;;;;;;5176699;27;22400;-71
2022/01/08 07:31:22;;;;;;;;;4.00;4.00;;;;;;;;5169682;27;8807;-73
2022/01/08 07:33:49;;;;;;;;;14.00;10.00;;;;;;;;5168723;27;10464;-74
2022/01/08 07:36:15;;;;;;;;;15.67;12.00;;;;;;;;5182223;27;22294;-75
2022/01/08 07:38:40;;;;;;;;;12.50;11.75;;;;;;;;5182089;27;11472;-75
2022/01/08 07:41:05;;;;;;;;;11.00;9.75;;;;;;;;5183015;27;11401;-75
2022/01/08 07:43:31;;;;;;;;;13.00;11.00;;;;;;;;5181505;27;21362;-76
2022/01/08 07:45:56;;;;;;;;;13.00;11.50;;;;;;;;5182151;27;21403;-73
2022/01/08 07:48:22;;;;;;;;;14.50;11.00;;;;;;;;5181973;27;9625;-73
2022/01/08 07:50:47;;;;;;;;;12.75;10.00;;;;;;;;5182043;27;11543;-74
2022/01/08 07:53:12;;;;;;;;;14.50;13.25;;;;;;;;5181885;27;10368;-74
2022/01/08 07:55:38;;;;;;;;;16.00;12.75;;;;;;;;5181311;27;11594;-75
2022/01/08 07:58:03;;;;;;;;;15.25;15.00;;;;;;;;5160150;27;11007;-70
2022/01/08 08:00:29;;;;;;;;;17.33;16.33;;;;;;;;5170956;27;11506;-75
2022/01/08 08:02:54;;;;;;;;;17.00;12.67;;;;;;;;5153881;27;12180;-74
2022/01/08 08:05:20;;;;;;;;;19.33;13.00;;;;;;;;5163275;27;10324;-75
2022/01/08 08:07:45;;;;;;;;;15.00;12.33;;;;;;;;5171428;27;11364;-73
2022/01/08 08:10:12;;;;;;;;;12.33;10.67;;;;;;;;5180354;27;11795;-75
2022/01/08 08:12:37;;;;;;;;;15.67;13.67;;;;;;;;5180819;27;11689;-74
2022/01/08 08:15:04;;;;;;;;;21.67;18.00;;;;;;;;5170435;27;10341;-74
2022/01/08 08:17:29;;;;;;;;;17.00;17.00;;;;;;;;5174321;27;13511;-74
2022/01/08 08:19:55;;;;;;;;;17.33;17.00;;;;;;;;5155302;27;14444;-73
2022/01/08 08:22:20;;;;;;;;;19.33;16.67;;;;;;;;5169978;27;8893;-74
2022/01/08 08:24:45;;;;;;;;;17.33;17.33;;;;;;;;5169991;27;11664;-73
2022/01/08 08:27:10;;;;;;;;;17.00;17.00;;;;;;;;5170809;27;11935;-74
2022/01/08 08:29:38;;;;;;;;;24.00;18.00;;;;;;;;5153361;27;10884;-74
2022/01/08 08:32:03;;;;;;;;;18.67;17.67;;;;;;;;5170403;27;10842;-75
2022/01/08 08:34:29;;;;;;;;;20.33;19.67;;;;;;;;5171091;27;13504;-77
2022/01/08 08:36:54;;;;;;;;;21.00;18.67;;;;;;;;5172142;27;12193;-79
2022/01/08 08:39:19;;;;;;;;;21.33;18.67;;;;;;;;5165617;27;10376;-75
2022/01/08 08:41:44;;;;;;;;;20.00;18.33;;;;;;;;5160247;27;9481;-78
2022/01/08 08:44:10;;;;;;;;;22.67;17.00;;;;;;;;5160226;27;11360;-76
2022/01/08 08:46:35;;;;;;;;;19.00;18.33;;;;;;;;5159978;27;11860;-76
2022/01/08 08:49:00;;;;;;;;;19.67;19.33;;;;;;;;5158879;27;13381;-73
2022/01/08 08:51:25;;;;;;;;;20.67;19.00;;;;;;;;5160272;27;9691;-72
2022/01/08 08:53:51;;;;;;;;;23.67;19.33;;;;;;;;5162088;27;13732;-74
2022/01/08 08:56:16;;;;;;;;;20.00;17.00;;;;;;;;5154775;27;11729;-73
2022/01/08 08:58:41;;;;;;;;;17.67;16.33;;;;;;;;5168959;27;11738;-72
2022/01/08 09:01:06;;;;;;;;;20.00;16.00;;;;;;;;5144455;27;15554;-74
2022/01/08 09:03:32;;;;;;;;;16.00;13.00;;;;;;;;5145019;27;15530;-74
2022/01/08 09:05:57;;;;;;;;;17.00;13.67;;;;;;;;5164043;27;11686;-81
2022/01/08 09:08:22;;;;;;;;;20.67;19.00;;;;;;;;5164007;27;11431;-81
2022/01/08 09:10:48;;;;;;;;;19.00;17.00;;;;;;;;5163950;27;13425;-80
2022/01/08 09:13:13;;;;;;;;;14.67;14.33;;;;;;;;5165574;27;12587;-77
2022/01/08 09:15:41;;;;;;;;;17.67;14.67;;;;;;;;5171962;27;11531;-79
2022/01/08 09:18:07;;;;;;;;;13.00;13.00;;;;;;;;5170957;27;11702;-75
2022/01/08 09:20:33;;;;;;;;;16.33;15.67;;;;;;;;5174458;27;11348;-73
2022/01/08 09:22:58;;;;;;;;;20.67;16.67;;;;;;;;5152927;27;13370;-75
2022/01/08 09:25:23;;;;;;;;;19.33;17.00;;;;;;;;5154567;27;15758;-76
2022/01/08 09:27:49;;;;;;;;;10.00;10.00;;;;;;;;5152604;27;15249;-73
2022/01/08 09:30:14;;;;;;;;;20.00;19.33;;;;;;;;5172260;27;10371;-73
2022/01/08 09:32:41;;;;;;;;;21.33;17.00;;;;;;;;5173040;27;13444;-76
2022/01/08 09:35:06;;;;;;;;;22.33;20.00;;;;;;;;5170908;27;11571;-78
2022/01/08 09:38:38;;;;;;;;;17.33;16.00;;;;;;;;5201448;27;76917;-80
2022/01/08 09:41:03;;;;;;;;;19.33;19.33;;;;;;;;5168682;27;24481;-76
2022/01/08 09:43:29;;;;;;;;;20.00;15.33;;;;;;;;5195855;27;11646;-75
2022/01/08 09:45:54;;;;;;;;;17.00;14.33;;;;;;;;5196766;27;12670;-73
2022/01/08 09:48:19;;;;;;;;;20.67;19.33;;;;;;;;5193716;27;10810;-74
2022/01/08 09:50:45;;;;;;;;;20.67;18.67;;;;;;;;5197302;27;12491;-74
2022/01/08 09:53:10;;;;;;;;;21.00;19.00;;;;;;;;5198091;27;9068;-74
2022/01/08 09:55:36;;;;;;;;;20.00;17.00;;;;;;;;5197461;27;11376;-74
2022/01/08 09:58:01;;;;;;;;;17.33;17.33;;;;;;;;5197788;27;8807;-74
2022/01/08 10:00:28;;;;;;;;;20.33;19.00;;;;;;;;5178122;27;13697;-73
2022/01/08 10:02:53;;;;;;;;;21.00;18.33;;;;;;;;5198079;27;13749;-74
2022/01/08 10:05:19;;;;;;;;;16.33;16.33;;;;;;;;5198627;27;12688;-79
2022/01/08 10:08:04;;;;;;;;;17.00;16.33;;;;;;;;5198792;27;12188;-81
2022/01/08 10:10:30;;;;;;;;;21.67;14.33;;;;;;;;5198252;27;9506;-79
2022/01/08 10:12:58;;;;;;;;;21.67;17.00;;;;;;;;5181267;27;14378;-80
2022/01/08 10:18:19;;;;;;;;;20.67;18.33;;;;;;;;5213186;27;11608;-80
2022/01/08 10:20:49;;;;;;;;;20.00;16.33;;;;;;;;5208335;27;12285;-81
2022/01/08 10:23:14;;;;;;;;;21.33;18.33;;;;;;;;5197366;27;10992;-80
2022/01/08 10:25:40;;;;;;;;;21.00;17.33;;;;;;;;5188328;27;11161;-80
2022/01/08 10:28:06;;;;;;;;;23.33;18.33;;;;;;;;5158935;27;10298;-78
2022/01/08 10:30:31;;;;;;;;;21.33;20.00;;;;;;;;5177776;27;10352;-84
2022/01/08 10:33:00;;;;;;;;;21.00;19.33;;;;;;;;5182731;27;13792;-79
2022/01/08 10:35:45;;;;;;;;;21.67;20.00;;;;;;;;5180325;27;14184;-80
2022/01/08 10:38:11;;;;;;;;;21.00;18.67;;;;;;;;5198960;27;12519;-80
2022/01/08 10:40:36;;;;;;;;;18.67;18.00;;;;;;;;5180279;27;12566;-81
2022/01/08 10:43:01;;;;;;;;;16.00;14.67;;;;;;;;5196690;27;13314;-79
2022/01/08 10:45:32;;;;;;;;;18.00;16.33;;;;;;;;5199578;27;11826;-82
2022/01/08 10:48:04;;;;;;;;;21.33;20.67;;;;;;;;5196468;27;13211;-82
2022/01/08 10:50:29;;;;;;;;;26.33;21.00;;;;;;;;5181699;27;13992;-81
2022/01/08 10:52:55;;;;;;;;;17.33;17.33;;;;;;;;5177748;27;11440;-83
2022/01/08 10:55:30;;;;;;;;;24.00;22.00;;;;;;;;5184411;27;14453;-89
2022/01/08 10:57:55;;;;;;;;;22.67;21.00;;;;;;;;5165584;27;15694;-89
2022/01/08 11:00:29;;;;;;;;;25.00;22.33;;;;;;;;5164764;27;10728;-79
2022/01/08 11:02:54;;;;;;;;;19.67;18.00;;;;;;;;5184000;27;12049;-75
2022/01/08 11:05:19;;;;;;;;;29.67;24.67;;;;;;;;5161744;27;15281;-80
2022/01/08 11:07:45;;;;;;;;;27.67;24.33;;;;;;;;5172679;27;13767;-81
2022/01/08 11:10:16;;;;;;;;;30.33;27.00;;;;;;;;5162883;27;11415;-77
2022/01/08 11:12:42;;;;;;;;;25.67;23.67;;;;;;;;5160344;27;13450;-80
2022/01/08 11:15:49;;;;;;;;;25.67;22.33;;;;;;;;5162345;27;13898;-78
2022/01/08 11:18:16;;;;;;;;;22.25;22.25;;;;;;;;5177989;27;8926;-79
2022/01/08 11:20:43;;;;;;;;;24.50;22.75;;;;;;;;5133163;27;12570;-79
2022/01/08 11:23:11;;;;;;;;;24.00;23.50;;;;;;;;5168121;27;11499;-80
2022/01/08 11:25:38;;;;;;;;;27.50;21.75;;;;;;;;5178689;27;11481;-76
2022/01/08 11:28:10;;;;;;;;;22.25;21.50;;;;;;;;5183895;27;12706;-77
2022/01/08 11:30:42;;;;;;;;;24.75;21.00;;;;;;;;5183026;27;12052;-75
2022/01/08 11:33:28;;;;;;;;;19.00;19.00;;;;;;;;5183221;27;11715;-74
2022/01/08 11:35:54;;;;;;;;;23.00;21.50;;;;;;;;5182923;27;12371;-75
2022/01/08 11:38:21;;;;;;;;;22.00;20.00;;;;;;;;5182960;27;13294;-75
2022/01/08 11:40:47;;;;;;;;;17.75;17.75;;;;;;;;5164035;27;13693;-78
2022/01/08 11:43:14;;;;;;;;;14.00;14.00;;;;;;;;5184307;27;13285;-76
2022/01/08 11:45:50;;;;;;;;;19.75;17.50;;;;;;;;5184013;27;11662;-81
2022/01/08 11:48:17;;;;;;;;;18.75;17.25;;;;;;;;5184138;27;11467;-80
2022/01/08 11:50:52;;;;;;;;;16.50;16.50;;;;;;;;5183083;27;11519;-81
2022/01/08 11:53:19;;;;;;;;;21.75;21.50;;;;;;;;5163366;27;14169;-83
2022/01/08 11:55:46;;;;;;;;;23.25;19.25;;;;;;;;5183720;27;12412;-83
2022/01/08 11:58:16;;;;;;;;;24.25;22.00;;;;;;;;5176244;27;13582;-84
2022/01/08 12:01:10;;;;;;;;;24.75;23.00;;;;;;;;5155794;27;14301;-79
2022/01/08 12:03:49;;;;;;;;;21.50;19.75;;;;;;;;5163370;27;11505;-82
2022/01/08 12:06:21;;;;;;;;;20.50;20.00;;;;;;;;5180588;27;12294;-80
2022/01/08 12:08:52;;;;;;;;;22.50;22.50;;;;;;;;5182033;27;12533;-81
2022/01/08 12:11:18;;;;;;;;;27.25;23.75;;;;;;;;5181278;27;11580;-79
2022/01/08 12:13:47;;;;;;;;;22.25;20.25;;;;;;;;5181735;27;12258;-75
2022/01/08 12:16:34;;;;;;;;;23.50;22.50;;;;;;;;5181412;27;10430;-76
2022/01/08 12:19:00;;;;;;;;;18.50;18.50;;;;;;;;5179637;27;12440;-76
2022/01/08 12:21:37;;;;;;;;;22.00;19.50;;;;;;;;5162236;27;12404;-74
2022/01/08 12:24:21;;;;;;;;;23.75;21.00;;;;;;;;5162083;27;14441;-75
2022/01/08 12:26:46;;;;;;;;;17.00;14.25;;;;;;;;5181577;27;12345;-74
2022/01/08 12:29:30;;;;;;;;;19.25;17.00;;;;;;;;5181175;27;13509;-74
2022/01/08 12:32:15;;;;;;;;;13.75;13.75;;;;;;;;5160722;27;12636;-74
2022/01/08 12:34:48;;;;;;;;;16.00;12.75;;;;;;;;5180354;27;11663;-74
2022/01/08 12:37:14;;;;;;;;;18.00;15.50;;;;;;;;5159343;27;11578;-79
2022/01/08 12:39:42;;;;;;;;;16.75;16.25;;;;;;;;5163883;27;11510;-79
2022/01/08 12:42:20;;;;;;;;;17.75;15.50;;;;;;;;5181858;27;11712;-76
2022/01/08 12:45:04;;;;;;;;;28.33;24.00;;;;;;;;5175240;27;11602;-77
2022/01/08 12:47:48;;;;;;;;;25.67;23.33;;;;;;;;5178172;27;13465;-77
2022/01/08 12:50:20;;;;;;;;;13.50;12.50;;;;;;;;5150177;27;12180;-74
2022/01/08 12:53:03;;;;;;;;;16.50;13.50;;;;;;;;5161145;27;13312;-85
2022/01/08 12:55:29;;;;;;;;;14.25;14.25;;;;;;;;5161615;27;11483;-84
2022/01/08 12:57:55;;;;;;;;;18.75;14.50;;;;;;;;5167852;27;11797;-88
2022/01/08 13:00:20;;;;;;;;;3.00;1.75;;;;;;;;5152792;27;11606;-88
2022/01/08 13:02:46;;;;;;;;;7.75;7.75;;;;;;;;5171995;27;22275;-87
2022/01/08 13:05:12;;;;;;;;;11.50;11.50;;;;;;;;5171200;27;10980;-86
2022/01/08 13:07:46;;;;;;;;;11.50;11.00;;;;;;;;5170350;27;22323;-87
2022/01/08 13:10:11;;;;;;;;;11.50;9.00;;;;;;;;5170788;27;8775;-88
2022/01/08 13:12:36;;;;;;;;;11.25;11.00;;;;;;;;5172422;27;18786;-86
2022/01/08 13:15:02;;;;;;;;;5.00;5.00;;;;;;;;5170828;27;22063;-79
2022/01/08 13:17:27;;;;;;;;;10.50;8.00;;;;;;;;5171908;27;23440;-79
2022/01/08 13:20:00;;;;;;;;;9.50;7.75;;;;;;;;5171785;27;21425;-81
2022/01/08 13:22:26;;;;;;;;;11.00;7.00;;;;;;;;5172244;27;21800;-82
2022/01/08 13:24:52;;;;;;;;;4.00;4.00;;;;;;;;5152922;27;23727;-82
2022/01/08 13:27:22;;;;;;;;;5.00;5.00;;;;;;;;5171607;27;22888;-78
2022/01/08 13:29:49;;;;;;;;;4.00;4.00;;;;;;;;5180143;27;9006;-77
2022/01/08 13:32:21;;;;;;;;;9.33;5.00;;;;;;;;5181865;27;11514;-75
2022/01/08 13:34:51;;;;;;;;;6.33;4.33;;;;;;;;5181547;27;12196;-72
2022/01/08 13:37:16;;;;;;;;;5.00;4.00;;;;;;;;5181315;27;11727;-73
2022/01/08 13:39:42;;;;;;;;;6.00;4.67;;;;;;;;5174731;27;12133;-74
2022/01/08 13:42:12;;;;;;;;;7.00;5.00;;;;;;;;5161530;27;11465;-74
2022/01/08 13:44:38;;;;;;;;;4.33;4.00;;;;;;;;5160575;27;12249;-73
2022/01/08 13:47:03;;;;;;;;;5.00;5.00;;;;;;;;5160548;27;11552;-72
2022/01/08 13:49:29;;;;;;;;;5.00;5.00;;;;;;;;5160900;27;11461;-73
2022/01/08 13:51:56;;;;;;;;;7.33;4.33;;;;;;;;5160551;27;8799;-73
2022/01/08 13:54:32;;;;;;;;;2.00;2.00;;;;;;;;5161242;27;11521;-73
2022/01/08 13:57:09;;;;;;;;;7.00;4.75;;;;;;;;5161077;27;11464;-72
2022/01/08 13:59:34;;;;;;;;;3.25;2.00;;;;;;;;5160194;27;11447;-73
2022/01/08 14:02:02;;;;;;;;;7.75;4.75;;;;;;;;5160409;27;11500;-74
2022/01/08 14:04:29;;;;;;;;;4.00;4.00;;;;;;;;5160680;27;11556;-75
2022/01/08 14:06:57;;;;;;;;;4.00;3.00;;;;;;;;5141150;27;12742;-73
2022/01/08 14:09:23;;;;;;;;;6.25;4.50;;;;;;;;5160733;27;11412;-73
2022/01/08 14:11:49;;;;;;;;;5.00;4.00;;;;;;;;5160771;27;11522;-74
2022/01/08 14:14:19;;;;;;;;;4.00;4.00;;;;;;;;5160792;27;12579;-73
2022/01/08 14:16:45;;;;;;;;;4.50;4.00;;;;;;;;5160711;27;8790;-74
2022/01/08 14:19:18;;;;;;;;;5.00;4.75;;;;;;;;5160648;27;11610;-72
2022/01/08 14:21:58;;;;;;;;;4.50;4.50;;;;;;;;5162897;27;11779;-73
2022/01/08 14:24:24;;;;;;;;;8.00;5.50;;;;;;;;5167963;27;12577;-78
2022/01/08 14:27:03;;;;;;;;;3.50;2.50;;;;;;;;5174286;27;11612;-76
2022/01/08 14:29:29;;;;;;;;;5.50;5.00;;;;;;;;5157834;27;11458;-77
2022/01/08 14:31:55;;;;;;;;;3.50;3.50;;;;;;;;5178875;27;11794;-77
2022/01/08 14:34:22;;;;;;;;;4.00;4.00;;;;;;;;5175362;27;11446;-77
2022/01/08 14:36:56;;;;;;;;;4.00;4.00;;;;;;;;5175989;27;11833;-77
2022/01/08 14:39:30;;;;;;;;;5.25;3.00;;;;;;;;5178236;27;11532;-76
2022/01/08 14:42:03;;;;;;;;;5.25;5.00;;;;;;;;5174473;27;11426;-77
2022/01/08 14:44:29;;;;;;;;;5.00;5.00;;;;;;;;5174006;27;11465;-72
2022/01/08 14:46:54;;;;;;;;;9.00;6.00;;;;;;;;5179086;27;11511;-72
2022/01/08 14:49:20;;;;;;;;;6.25;6.25;;;;;;;;5173165;27;8863;-72